Baton Rouge, LA (70808)

1:55 AM CDT on September 19, 2014 (GMT -0500)
Capital Heights | Change Station
CLOSE
Current Station
Personal Weather Station
Location: Baton Rouge, LA
Elevation: 82 ft
Nearby Weather Stations

Elev 82 ft 30.44 °N, 91.13 °W | Updated 2 seconds ago

Overcast
Overcast
72.9 °F
Feels Like 72.9 °F
N
0.0
Wind Variable Wind from NE
Gusts 0.0 mph

Today
High -- | Low -- °F
--% Chance of Precip.
Yesterday
High -- | Low -- °F
Precip. -- in
6:51 AM 7:04 PM
Waning Crescent, 21% visible
Pressure 29.94 in
Visibility 10.0 miles
Clouds Few 6500 ft
Overcast 10000 ft
Dew Point 72 °F
Humidity 96%
Rainfall 0.00 in
Snow Depth Not available.
UV 0 out of 12
Pollen 8.30 out of 12
Ozone Good
PM2.5 Good
Flu Activity Not available.
METAR KBTR 190553Z 07003KT 10SM FEW065 OVC100 23/21 A2993 RMK AO2 SLP136 60019 T02280211 10228 20222 403060222 58001

More Conditions Fewer Conditions

Pressure 29.94 in
Visibility 10.0 miles
Clouds Few 6500 ft
Overcast 10000 ft
Dew Point 72 °F
Humidity 96%
Rainfall 0.00 in
Snow Depth Not available.
UV 0 out of 12
Pollen 8.30 out of 12
Ozone Good
PM2.5 Good
Flu Activity Not available.
METAR KBTR 190553Z 07003KT 10SM FEW065 OVC100 23/21 A2993 RMK AO2 SLP136 60019 T02280211 10228 20222 403060222 58001

More Conditions Fewer Conditions

10-Day Weather Forecast

Almanac

Astronomy

Sep. 19, 2014 Rise Set
Actual Time 6:51 AM CDT 7:04 PM CDT
Civil Twilight 6:27 AM CDT 7:28 PM CDT
Nautical Twilight 5:59 AM CDT 7:56 PM CDT
Astronomical Twilight 5:30 AM CDT 8:25 PM CDT
Moon 2:50 AM CDT 4:21 PM CDT
Length of Visible Light 13h 01m
Length of Day
12h 13m
Tomorrow will be 1m 49s shorter.
Waning Crescent, 21% of the Moon is Illuminated
Today
Waning Crescent
Sep 24
New
Oct 1
First Quarter
Oct 8
Full
Oct 15
Last Quarter

Today's Extremes

State Highs State Lows

Community

WunderPhotos

Upload Photos

1,754,575 photos uploaded!

Nearby

Air Quality

  Air Quality AQ Index Pollutant
Yesterday Good
PM2.5
Yesterday Good
OZONE
Current Good
PM2.5
Current Good
OZONE
Friday Moderate
PM2.5
Friday Good
OZONE
Saturday Moderate
PM2.5
Saturday Moderate
OZONE

Snow Depth

Station Depth Elevation
No new snow has been reported.

Earthquake Activity

City Distance Mag. Time & Date
No recent earthquake activity has been reported nearby.
Minimum magnitude displayed is 2.5.

Coastal Water Temperatures

Place Temperature
No Stations Reporting

Nearby Weather Stations